Toomsuba, MS (39364)

12:02 PM CDT on September 04, 2015 (GMT -0500)
Hill Country Community | | Change Station
CLOSE
Current Station
Personal Weather Station
Location: Meridian, MS
Elevation: 440 ft
Nearby Weather Stations

Elev 440 ft 32.47 °N, 88.66 °W | Updated 8 minutes ago

Clear
Clear
90.1 °F
Feels Like 99 °F
N
3.2
Wind Variable Wind from SW

Today
High -- | Low -- °F
--% Chance of Precip.
Yesterday
High -- | Low -- °F
Precip. -- in
6:30 AM 7:15 PM
Waning Gibbous, 58% visible
Pressure 30.03 in
Visibility 10.0 miles
Clouds Few 3500 ft
Few 25000 ft
Heat Index 99 °F
Dew Point 74 °F
Humidity 59%
Rainfall 0.00 in
Snow Depth Not available.
UV 9 out of 12
Pollen 9.10 out of 12
Air Quality Not available.
Flu Activity Not available.
METAR KNMM 041656Z 35004KT 10SM FEW035 FEW250 33/22 A3001 RMK AO2 SLP169 T03280217 $
Pressure 30.03 in
Visibility 10.0 miles
Clouds Few 3500 ft
Few 25000 ft
Heat Index 99 °F
Dew Point 74 °F
Humidity 59%
Rainfall 0.00 in
Snow Depth Not available.
UV 9 out of 12
Pollen 9.10 out of 12
Air Quality Not available.
Flu Activity Not available.
METAR KNMM 041656Z 35004KT 10SM FEW035 FEW250 33/22 A3001 RMK AO2 SLP169 T03280217 $

10-Day Weather Forecast

×

Almanac

Astronomy

Sep. 04, 2015 Rise Set
Actual Time
Civil Twilight
Nautical Twilight
Astronomical Twilight
Moon
Length of Visible Light
Length of Day
Tomorrow will be .
, % of the Moon is Illuminated

Today's Extremes

State Highs State Lows

Community

WunderPhotos

Upload Photos

1,852,230 photos uploaded!

WunderBlogs® & News

Nearby

Air Quality

  Air Quality AQ Index Pollutant
Not available.

Snow Depth

Station Depth Elevation

Earthquake Activity

City Distance Mag. Time & Date
Minimum magnitude displayed is 2.5.

Coastal Water Temperatures

Place Temperature

Stations

Nearby Weather Stations

Station Location Temp. Windchill Dew Point Humidity Wind Precip. Elev Updated Type